createdAt,value
2019-05-02T00:02:30.533Z,5.73
2019-05-02T00:04:58.716Z,5.43
2019-05-02T00:07:26.529Z,7.03
2019-05-02T00:09:54.345Z,5.33
2019-05-02T00:12:22.684Z,4.90
2019-05-02T00:14:56.458Z,6.13
2019-05-02T00:17:25.727Z,7.37
2019-05-02T00:19:52.965Z,4.07
2019-05-02T00:22:20.958Z,6.20
2019-05-02T00:24:48.556Z,8.70
2019-05-02T00:27:16.297Z,5.00
2019-05-02T00:29:43.971Z,5.20
2019-05-02T00:32:11.695Z,5.33
2019-05-02T00:34:39.330Z,6.97
2019-05-02T00:37:07.091Z,5.97
2019-05-02T00:39:34.650Z,5.60
2019-05-02T00:42:12.388Z,5.70
2019-05-02T00:44:31.853Z,7.80
2019-05-02T00:47:10.878Z,5.87
2019-05-02T00:49:38.584Z,4.73
2019-05-02T00:52:06.554Z,5.83
2019-05-02T00:54:34.472Z,6.67
2019-05-02T00:57:02.333Z,8.67
2019-05-02T00:59:30.152Z,4.83
2019-05-02T01:02:20.363Z,5.67
2019-05-02T01:04:48.653Z,6.23
2019-05-02T01:07:20.515Z,7.30
2019-05-02T01:09:46.874Z,7.30
2019-05-02T01:12:26.344Z,7.13
2019-05-02T01:14:45.475Z,5.57
2019-05-02T01:17:13.279Z,5.97
2019-05-02T01:19:40.959Z,7.57
2019-05-02T01:22:10.716Z,8.20
2019-05-02T01:24:39.941Z,7.30
2019-05-02T01:27:15.655Z,8.53
2019-05-02T01:30:11.461Z,7.20
2019-05-02T01:33:01.489Z,9.27
2019-05-02T01:35:46.452Z,5.97
2019-05-02T01:38:19.776Z,5.83
2019-05-02T01:40:53.066Z,5.40
2019-05-02T01:43:23.992Z,7.00
2019-05-02T01:45:52.034Z,6.43
2019-05-02T01:48:20.042Z,5.97
2019-05-02T01:50:47.798Z,10.37
2019-05-02T01:53:15.467Z,8.07
2019-05-02T01:55:43.220Z,10.43
2019-05-02T01:58:14.930Z,6.83
2019-05-02T02:00:44.465Z,7.67
2019-05-02T02:03:10.422Z,10.20
2019-05-02T02:05:38.542Z,10.50
2019-05-02T02:08:06.419Z,10.53
2019-05-02T02:10:34.130Z,11.33
2019-05-02T02:13:04.911Z,11.70
2019-05-02T02:15:31.734Z,13.13
2019-05-02T02:17:59.396Z,11.13
2019-05-02T02:20:29.984Z,10.07
2019-05-02T02:23:28.977Z,12.60
2019-05-02T02:26:01.628Z,10.87
2019-05-02T02:28:31.989Z,9.40
2019-05-02T02:31:05.073Z,10.23
2019-05-02T02:33:28.262Z,12.37
2019-05-02T02:35:55.901Z,9.33
2019-05-02T02:38:26.937Z,12.17
2019-05-02T02:40:53.305Z,8.60
2019-05-02T02:43:33.670Z,9.47
2019-05-02T02:46:04.236Z,9.67
2019-05-02T02:48:33.577Z,11.73
2019-05-02T02:51:02.414Z,9.10
2019-05-02T02:53:30.234Z,9.10
2019-05-02T02:56:01.695Z,11.07
2019-05-02T02:58:29.145Z,9.83
2019-05-02T03:00:57.131Z,11.60
2019-05-02T03:03:27.736Z,9.73
2019-05-02T03:05:58.805Z,9.53
2019-05-02T03:08:24.362Z,7.70
2019-05-02T03:10:52.115Z,9.83
2019-05-02T03:13:51.344Z,7.90
2019-05-02T03:16:11.927Z,8.87
2019-05-02T03:18:40.566Z,9.57
2019-05-02T03:21:13.185Z,8.13
2019-05-02T03:23:39.635Z,7.27
2019-05-02T03:26:08.070Z,7.00
2019-05-02T03:28:36.921Z,9.37
2019-05-02T03:31:21.626Z,8.10
2019-05-02T03:33:52.591Z,8.17
2019-05-02T03:36:03.967Z,11.33
2019-05-02T03:38:34.853Z,8.63
2019-05-02T03:41:01.476Z,9.33
2019-05-02T03:43:28.997Z,8.57
2019-05-02T03:45:56.734Z,9.83
2019-05-02T03:48:25.579Z,8.63
2019-05-02T03:50:55.083Z,8.47
2019-05-02T03:53:25.331Z,9.73
2019-05-02T03:55:52.876Z,6.90
2019-05-02T03:58:20.545Z,7.73
2019-05-02T04:01:00.801Z,7.67
2019-05-02T04:03:18.955Z,9.23
2019-05-02T04:05:46.855Z,7.70
2019-05-02T04:08:20.765Z,8.07
2019-05-02T04:11:25.576Z,8.37
2019-05-02T04:13:54.447Z,9.30
2019-05-02T04:16:24.772Z,7.67
2019-05-02T04:18:55.846Z,8.23
2019-05-02T04:21:25.912Z,8.03
2019-05-02T04:23:52.989Z,10.13
2019-05-02T04:26:20.815Z,8.13
2019-05-02T04:28:51.886Z,9.67
2019-05-02T04:31:18.195Z,9.03
2019-05-02T04:33:45.986Z,8.13
2019-05-02T04:36:17.419Z,9.70
2019-05-02T04:38:47.871Z,9.57
2019-05-02T04:41:21.353Z,9.50
2019-05-02T04:43:51.447Z,10.63
2019-05-02T04:46:22.050Z,9.00
2019-05-02T04:48:48.648Z,11.43
2019-05-02T04:51:16.345Z,10.33
2019-05-02T04:53:45.253Z,8.67
2019-05-02T04:56:10.927Z,9.90
2019-05-02T04:58:40.691Z,12.10
2019-05-02T05:01:10.167Z,11.47
2019-05-02T05:03:37.755Z,14.77
2019-05-02T05:06:10.786Z,19.77
2019-05-02T05:08:34.828Z,15.50
2019-05-02T05:11:02.454Z,17.60
2019-05-02T05:13:30.046Z,18.57
2019-05-02T05:15:57.649Z,16.63
2019-05-02T05:18:27.389Z,14.73
2019-05-02T05:20:54.973Z,12.43
2019-05-02T05:23:51.832Z,18.53
2019-05-02T05:26:17.605Z,12.03
2019-05-02T05:28:45.330Z,15.40
2019-05-02T05:31:18.439Z,17.90
2019-05-02T05:33:42.654Z,14.70
2019-05-02T05:36:10.592Z,19.03
2019-05-02T05:38:40.566Z,13.97
2019-05-02T05:41:11.438Z,14.27
2019-05-02T05:43:38.626Z,15.73
2019-05-02T05:46:12.341Z,13.93
2019-05-02T05:48:39.159Z,14.60
2019-05-02T05:51:07.287Z,13.13
2019-05-02T05:53:37.369Z,13.93
2019-05-02T05:56:04.957Z,15.60
2019-05-02T05:58:32.772Z,12.07
2019-05-02T06:01:00.462Z,11.53
2019-05-02T06:03:28.052Z,9.83
2019-05-02T06:05:57.653Z,10.40
2019-05-02T06:08:25.545Z,10.83
2019-05-02T06:10:53.162Z,9.23
2019-05-02T06:13:20.850Z,12.80
2019-05-02T06:16:01.290Z,11.27
2019-05-02T06:18:18.016Z,13.57
2019-05-02T06:20:45.726Z,15.07
2019-05-02T06:23:13.272Z,11.23
2019-05-02T06:25:42.746Z,9.33
2019-05-02T06:28:11.678Z,12.77
2019-05-02T06:30:39.318Z,9.47
2019-05-02T06:33:06.866Z,10.33
2019-05-02T06:35:34.590Z,9.97
2019-05-02T06:38:02.175Z,11.87
2019-05-02T06:40:29.833Z,9.57
2019-05-02T06:42:57.397Z,11.00
2019-05-02T06:45:25.201Z,12.77
2019-05-02T06:47:52.842Z,10.57
2019-05-02T06:50:20.700Z,8.90
2019-05-02T06:52:49.909Z,8.87
2019-05-02T06:55:17.657Z,10.53
2019-05-02T06:57:45.204Z,8.17
2019-05-02T07:00:13.108Z,8.80
2019-05-02T07:02:41.970Z,13.03
2019-05-02T07:05:09.807Z,18.47
2019-05-02T07:07:37.775Z,16.97
2019-05-02T07:10:07.443Z,20.07
2019-05-02T07:12:35.259Z,19.80
2019-05-02T07:15:08.320Z,19.57
2019-05-02T07:17:39.297Z,21.73
2019-05-02T07:20:07.096Z,17.30
2019-05-02T07:22:38.904Z,21.27
2019-05-02T07:25:06.868Z,21.03
2019-05-02T07:27:35.609Z,16.67
2019-05-02T07:30:04.345Z,18.77
2019-05-02T07:32:32.982Z,13.83
2019-05-02T07:35:00.654Z,15.20
2019-05-02T07:37:28.266Z,15.27
2019-05-02T07:39:56.916Z,9.20
2019-05-02T07:42:24.584Z,16.60
2019-05-02T07:44:52.145Z,18.63
2019-05-02T07:47:19.673Z,16.33
2019-05-02T07:49:47.311Z,12.57
2019-05-02T07:52:14.909Z,13.77
2019-05-02T07:54:42.557Z,9.30
2019-05-02T07:57:10.132Z,9.20
2019-05-02T07:59:37.765Z,10.43
2019-05-02T08:02:05.366Z,10.27
2019-05-02T08:04:33.079Z,10.20
2019-05-02T08:07:00.588Z,12.27
2019-05-02T08:09:28.220Z,10.10
2019-05-02T08:11:55.820Z,10.30
2019-05-02T08:14:24.588Z,6.90
2019-05-02T08:17:04.889Z,7.90
2019-05-02T08:19:23.539Z,12.33
2019-05-02T08:21:51.417Z,11.38
2019-05-02T08:24:20.661Z,10.00
2019-05-02T08:27:23.347Z,10.88
2019-05-02T08:29:52.164Z,11.60
2019-05-02T08:32:19.848Z,20.12
2019-05-02T08:34:51.615Z,10.25
2019-05-02T08:37:17.006Z,11.15
2019-05-02T08:39:44.729Z,7.50
2019-05-02T08:42:12.384Z,9.25
2019-05-02T08:44:50.758Z,8.78
2019-05-02T08:47:18.763Z,13.22
2019-05-02T08:49:39.217Z,12.93
2019-05-02T08:52:06.922Z,9.65
2019-05-02T08:54:34.652Z,9.68
2019-05-02T08:57:02.360Z,12.23
2019-05-02T08:59:30.075Z,11.12
2019-05-02T09:01:57.734Z,8.03
2019-05-02T09:04:29.048Z,12.10
2019-05-02T09:06:58.847Z,8.03
2019-05-02T09:09:28.063Z,6.15
2019-05-02T09:12:03.256Z,10.48
2019-05-02T09:14:23.662Z,8.40
2019-05-02T09:16:52.385Z,7.30
2019-05-02T09:19:21.336Z,7.55
2019-05-02T09:21:49.577Z,10.90
2019-05-02T09:24:21.151Z,6.55
2019-05-02T09:26:46.812Z,6.00
2019-05-02T09:29:14.491Z,6.80
2019-05-02T09:31:45.918Z,4.28
2019-05-02T09:34:11.854Z,10.38
2019-05-02T09:36:39.670Z,4.72
2019-05-02T09:39:07.425Z,14.93
2019-05-02T09:41:36.364Z,4.15
2019-05-02T09:44:04.491Z,3.87
2019-05-02T09:46:32.551Z,7.30
2019-05-02T09:49:04.305Z,8.50
2019-05-02T09:51:32.300Z,4.87
2019-05-02T09:54:04.703Z,5.15
2019-05-02T09:56:29.314Z,6.58
2019-05-02T09:59:04.766Z,6.53
2019-05-02T10:01:33.841Z,6.42
2019-05-02T10:04:02.345Z,8.43
2019-05-02T10:06:32.138Z,4.75
2019-05-02T10:08:59.689Z,3.77
2019-05-02T10:11:27.534Z,6.70
2019-05-02T10:13:55.529Z,6.08
2019-05-02T10:16:27.154Z,8.35
2019-05-02T10:18:52.909Z,3.87
2019-05-02T10:21:22.851Z,6.22
2019-05-02T10:23:51.780Z,6.92
2019-05-02T10:26:24.533Z,3.52
2019-05-02T10:28:53.248Z,5.72
2019-05-02T10:31:21.830Z,5.75
2019-05-02T10:33:49.660Z,6.42
2019-05-02T10:36:19.816Z,3.95
2019-05-02T10:38:48.958Z,5.40
2019-05-02T10:41:16.352Z,5.03
2019-05-02T10:43:46.941Z,6.20
2019-05-02T10:46:37.656Z,5.08
2019-05-02T10:49:12.506Z,4.37
2019-05-02T10:51:41.862Z,4.30
2019-05-02T10:54:11.890Z,4.92
2019-05-02T10:56:39.349Z,4.37
2019-05-02T10:59:07.019Z,6.95
2019-05-02T11:01:48.895Z,5.05
2019-05-02T11:04:16.585Z,5.55
2019-05-02T11:06:46.256Z,5.37
2019-05-02T11:09:16.735Z,6.62
2019-05-02T11:11:43.399Z,4.90
2019-05-02T11:14:23.482Z,5.72
2019-05-02T11:16:58.525Z,7.37
2019-05-02T11:19:52.303Z,6.33
2019-05-02T11:22:20.159Z,3.35
2019-05-02T11:24:47.856Z,5.40
2019-05-02T11:27:15.531Z,6.37
2019-05-02T11:29:43.166Z,5.33
2019-05-02T11:32:12.818Z,4.37
2019-05-02T11:34:42.065Z,5.03
2019-05-02T11:37:12.089Z,8.05
2019-05-02T11:39:49.054Z,4.92
2019-05-02T11:42:09.669Z,3.87
2019-05-02T11:44:37.334Z,3.95
2019-05-02T11:47:04.894Z,4.10
2019-05-02T11:49:32.599Z,4.03
2019-05-02T11:52:04.343Z,3.50
2019-05-02T11:54:31.845Z,3.62
2019-05-02T11:56:59.437Z,4.80
2019-05-02T11:59:28.079Z,5.80
2019-05-02T12:02:17.530Z,4.15
2019-05-02T12:04:41.803Z,3.10
2019-05-02T12:07:09.597Z,5.95
2019-05-02T12:09:37.331Z,4.33
2019-05-02T12:12:05.052Z,7.00
2019-05-02T12:14:36.233Z,7.28
2019-05-02T12:17:02.680Z,3.77
2019-05-02T12:19:32.245Z,9.43
2019-05-02T12:22:02.449Z,4.83
2019-05-02T12:24:31.891Z,4.05
2019-05-02T12:26:59.752Z,5.03
2019-05-02T12:29:27.480Z,6.15
2019-05-02T12:32:15.707Z,4.28
2019-05-02T12:34:43.503Z,6.87
2019-05-02T12:37:12.600Z,4.10
2019-05-02T12:39:42.566Z,4.55
2019-05-02T12:42:12.587Z,5.00
2019-05-02T12:44:40.054Z,5.87
2019-05-02T12:47:07.928Z,4.45
2019-05-02T12:49:35.516Z,8.85
2019-05-02T12:52:03.259Z,3.95
2019-05-02T12:54:32.528Z,4.40
2019-05-02T12:57:02.061Z,3.30
2019-05-02T12:59:29.819Z,3.98
2019-05-02T13:01:59.569Z,4.65
2019-05-02T13:04:28.928Z,4.75
2019-05-02T13:06:56.778Z,5.12
2019-05-02T13:09:24.916Z,4.80
2019-05-02T13:12:10.306Z,3.98
2019-05-02T13:14:42.653Z,3.08
2019-05-02T13:17:13.714Z,2.92
2019-05-02T13:19:55.381Z,4.05
2019-05-02T13:22:33.064Z,4.25
2019-05-02T13:25:04.211Z,3.65
2019-05-02T13:27:42.999Z,5.45
2019-05-02T13:30:03.376Z,5.07
2019-05-02T13:32:48.208Z,3.87
2019-05-02T13:35:34.258Z,4.90
2019-05-02T13:38:06.546Z,4.03
2019-05-02T13:40:41.677Z,3.67
2019-05-02T13:43:09.567Z,5.70
2019-05-02T13:46:09.801Z,5.23
2019-05-02T13:48:37.668Z,3.43
2019-05-02T13:51:05.502Z,3.77
2019-05-02T13:53:34.646Z,5.23
2019-05-02T13:56:22.113Z,10.70
2019-05-02T13:58:51.772Z,4.63
2019-05-02T14:01:19.791Z,3.57
2019-05-02T14:03:47.667Z,7.37
2019-05-02T14:06:15.554Z,3.53
2019-05-02T14:08:58.081Z,2.50
2019-05-02T14:11:44.397Z,5.73
2019-05-02T14:14:12.569Z,3.43
2019-05-02T14:16:41.890Z,4.33
2019-05-02T14:19:09.781Z,2.87
2019-05-02T14:21:37.443Z,5.97
2019-05-02T14:24:05.252Z,4.27
2019-05-02T14:26:33.270Z,4.13
2019-05-02T14:29:02.568Z,3.10
2019-05-02T14:31:32.233Z,3.67
2019-05-02T14:34:18.159Z,6.73
2019-05-02T14:36:45.770Z,7.43
2019-05-02T14:39:13.478Z,4.10
2019-05-02T14:41:44.429Z,9.57
2019-05-02T14:44:11.981Z,4.93
2019-05-02T14:46:39.744Z,3.93
2019-05-02T14:49:07.613Z,3.37
2019-05-02T14:51:36.717Z,5.23
2019-05-02T14:54:08.117Z,5.57
2019-05-02T14:56:52.188Z,4.80
2019-05-02T14:59:22.581Z,6.40
2019-05-02T15:01:57.932Z,2.80
2019-05-02T15:04:23.136Z,2.30
2019-05-02T15:06:52.588Z,4.77
2019-05-02T15:09:22.531Z,5.30
2019-05-02T15:11:59.436Z,3.50
2019-05-02T15:14:32.943Z,3.83
2019-05-02T15:17:02.555Z,4.43
2019-05-02T15:19:30.316Z,3.77
2019-05-02T15:21:57.940Z,4.67
2019-05-02T15:24:27.778Z,3.57
2019-05-02T15:26:55.076Z,4.70
2019-05-02T15:29:27.127Z,6.63
2019-05-02T15:32:12.718Z,3.30
2019-05-02T15:35:12.941Z,6.27
2019-05-02T15:37:41.724Z,5.57
2019-05-02T15:40:43.241Z,2.33
2019-05-02T15:42:48.550Z,2.90
2019-05-02T15:45:16.477Z,3.63
2019-05-02T15:47:45.458Z,3.70
2019-05-02T15:50:14.815Z,5.90
2019-05-02T15:52:45.887Z,4.47
2019-05-02T15:55:13.905Z,5.80
2019-05-02T15:57:45.870Z,3.40
2019-05-02T16:00:21.705Z,5.20
2019-05-02T16:02:44.132Z,5.53
2019-05-02T16:05:12.984Z,3.30
2019-05-02T16:07:43.318Z,3.10
2019-05-02T16:10:13.250Z,4.43
2019-05-02T16:12:43.182Z,6.53
2019-05-02T16:15:18.186Z,3.57
2019-05-02T16:17:42.308Z,4.30
2019-05-02T16:20:17.219Z,8.03
2019-05-02T16:22:49.557Z,5.57
2019-05-02T16:25:14.572Z,3.27
2019-05-02T16:27:44.361Z,8.50
2019-05-02T16:30:14.254Z,3.27
2019-05-02T16:32:58.525Z,5.80
2019-05-02T16:35:27.134Z,3.40
2019-05-02T16:37:56.073Z,4.40
2019-05-02T16:40:29.754Z,3.57
2019-05-02T16:42:53.860Z,3.80
2019-05-02T16:45:22.828Z,5.27
2019-05-02T16:47:58.800Z,3.93
2019-05-02T16:50:22.915Z,4.37
2019-05-02T16:52:52.880Z,4.03
2019-05-02T16:55:26.341Z,4.23
2019-05-02T16:57:51.916Z,3.17
2019-05-02T17:00:24.862Z,5.77
2019-05-02T17:02:52.471Z,2.37
2019-05-02T17:05:21.973Z,3.53
2019-05-02T17:07:56.395Z,6.20
2019-05-02T17:10:36.647Z,6.17
2019-05-02T17:13:04.345Z,4.03
2019-05-02T17:15:35.461Z,4.67
2019-05-02T17:18:05.107Z,3.43
2019-05-02T17:20:32.707Z,4.17
2019-05-02T17:23:05.368Z,3.27
2019-05-02T17:25:32.096Z,3.87
2019-05-02T17:28:02.381Z,3.83
2019-05-02T17:30:33.711Z,4.03
2019-05-02T17:32:58.858Z,5.47
2019-05-02T17:35:26.637Z,3.27
2019-05-02T17:37:54.204Z,4.00
2019-05-02T17:40:25.885Z,4.53
2019-05-02T17:42:52.532Z,5.10
2019-05-02T17:45:20.295Z,3.50
2019-05-02T17:47:47.874Z,3.80
2019-05-02T17:50:42.251Z,3.93
2019-05-02T17:53:11.663Z,3.10
2019-05-02T17:55:40.768Z,2.47
2019-05-02T17:58:12.494Z,5.13
2019-05-02T18:00:43.064Z,7.57
2019-05-02T18:03:12.429Z,3.50
2019-05-02T18:05:41.877Z,4.93
2019-05-02T18:08:10.869Z,3.63
2019-05-02T18:10:39.303Z,5.17
2019-05-02T18:13:07.093Z,4.60
2019-05-02T18:15:36.240Z,5.63
2019-05-02T18:18:06.831Z,5.70
2019-05-02T18:20:37.272Z,3.80
2019-05-02T18:23:05.798Z,5.17
2019-05-02T18:25:32.863Z,3.33
2019-05-02T18:28:02.278Z,5.43
2019-05-02T18:30:29.913Z,4.73
2019-05-02T18:33:02.234Z,3.17
2019-05-02T18:35:27.008Z,5.67
2019-05-02T18:37:54.608Z,5.20
2019-05-02T18:40:27.674Z,5.70
2019-05-02T18:42:52.066Z,3.93
2019-05-02T18:45:25.400Z,3.03
2019-05-02T18:47:54.033Z,4.67
2019-05-02T18:50:36.751Z,3.10
2019-05-02T18:53:03.941Z,5.00
2019-05-02T18:55:31.824Z,3.13
2019-05-02T18:58:02.275Z,3.03
2019-05-02T19:00:37.814Z,2.87
2019-05-02T19:03:02.747Z,4.53
2019-05-02T19:05:32.558Z,4.37
2019-05-02T19:08:02.467Z,4.07
2019-05-02T19:10:32.221Z,4.13
2019-05-02T19:13:00.994Z,4.27
2019-05-02T19:15:34.370Z,4.70
2019-05-02T19:18:02.453Z,4.63
2019-05-02T19:21:03.156Z,4.57
2019-05-02T19:23:32.059Z,3.10
2019-05-02T19:26:03.752Z,5.30
2019-05-02T19:28:48.073Z,4.83
2019-05-02T19:31:15.673Z,3.83
2019-05-02T19:33:44.315Z,8.20
2019-05-02T19:36:16.175Z,8.37
2019-05-02T19:38:42.834Z,3.57
2019-05-02T19:41:11.663Z,3.53
2019-05-02T19:43:40.496Z,3.57
2019-05-02T19:46:08.991Z,7.23
2019-05-02T19:48:39.007Z,5.93
2019-05-02T19:51:12.688Z,3.40
2019-05-02T19:53:35.903Z,3.33
2019-05-02T19:56:03.633Z,6.97
2019-05-02T19:58:32.058Z,5.67
2019-05-02T20:01:02.369Z,7.00
2019-05-02T20:03:32.376Z,5.77
2019-05-02T20:06:02.267Z,5.47
2019-05-02T20:08:29.903Z,5.83
2019-05-02T20:10:58.492Z,4.83
2019-05-02T20:13:28.548Z,3.63
2019-05-02T20:16:05.770Z,4.13
2019-05-02T20:18:36.669Z,7.47
2019-05-02T20:21:24.202Z,8.50
2019-05-02T20:23:48.905Z,5.73
2019-05-02T20:26:17.160Z,5.33
2019-05-02T20:28:45.136Z,5.00
2019-05-02T20:31:12.717Z,7.93
2019-05-02T20:33:42.895Z,4.73
2019-05-02T20:36:12.365Z,3.73
2019-05-02T20:38:41.773Z,4.10
2019-05-02T20:41:10.198Z,6.30
2019-05-02T20:43:37.875Z,6.30
2019-05-02T20:46:05.490Z,9.17
2019-05-02T20:48:33.463Z,4.73
2019-05-02T20:51:02.677Z,5.17
2019-05-02T20:53:31.840Z,4.80
2019-05-02T20:56:01.793Z,4.60
2019-05-02T20:58:29.688Z,5.90
2019-05-02T21:01:07.835Z,4.10
2019-05-02T21:03:26.909Z,4.00
2019-05-02T21:06:04.837Z,7.13
2019-05-02T21:08:52.434Z,5.07
2019-05-02T21:11:19.898Z,3.10
2019-05-02T21:13:47.528Z,2.20
2019-05-02T21:16:15.144Z,6.93
2019-05-02T21:18:42.818Z,4.13
2019-05-02T21:21:12.419Z,2.10
2019-05-02T21:23:44.825Z,4.80
2019-05-02T21:26:09.414Z,4.07
2019-05-02T21:28:37.076Z,6.37
2019-05-02T21:31:04.722Z,2.20
2019-05-02T21:33:35.582Z,5.60
2019-05-02T21:36:03.373Z,3.90
2019-05-02T21:38:32.025Z,3.47
2019-05-02T21:40:59.713Z,4.33
2019-05-02T21:43:27.421Z,3.10
2019-05-02T21:45:55.200Z,2.50
2019-05-02T21:48:24.324Z,4.67
2019-05-02T21:51:12.543Z,3.00
2019-05-02T21:53:58.279Z,6.37
2019-05-02T21:56:42.932Z,4.37
2019-05-02T21:59:12.144Z,4.40
2019-05-02T22:01:53.854Z,3.07
2019-05-02T22:04:22.739Z,3.33
2019-05-02T22:06:52.180Z,5.97
2019-05-02T22:09:20.187Z,6.10
2019-05-02T22:11:47.831Z,3.50
2019-05-02T22:14:15.649Z,3.30
2019-05-02T22:16:43.372Z,3.47
2019-05-02T22:19:11.104Z,3.47
2019-05-02T22:21:38.851Z,4.33
2019-05-02T22:24:11.265Z,7.30
2019-05-02T22:26:36.359Z,5.17
2019-05-02T22:29:04.203Z,4.27
2019-05-02T22:31:32.457Z,3.57
2019-05-02T22:34:01.996Z,3.43
2019-05-02T22:36:30.016Z,5.20
2019-05-02T22:39:32.345Z,4.47
2019-05-02T22:42:01.932Z,6.30
2019-05-02T22:44:29.661Z,4.07
2019-05-02T22:46:57.325Z,3.60
2019-05-02T22:49:24.875Z,3.27
2019-05-02T22:51:52.536Z,5.40
2019-05-02T22:54:27.771Z,3.67
2019-05-02T22:56:51.946Z,4.53
2019-05-02T22:59:19.479Z,7.33
2019-05-02T23:01:47.142Z,3.43
2019-05-02T23:04:14.750Z,4.00
2019-05-02T23:06:44.238Z,4.07
2019-05-02T23:09:12.908Z,4.53
2019-05-02T23:11:42.574Z,3.03
2019-05-02T23:14:12.249Z,3.93
2019-05-02T23:16:42.337Z,3.70
2019-05-02T23:19:09.452Z,3.40
2019-05-02T23:21:37.143Z,2.63
2019-05-02T23:24:09.646Z,4.67
2019-05-02T23:27:02.636Z,3.03
2019-05-02T23:29:31.816Z,3.47
2019-05-02T23:31:59.566Z,2.00
2019-05-02T23:34:27.222Z,4.10
2019-05-02T23:36:54.970Z,2.73
2019-05-02T23:39:22.609Z,3.30
2019-05-02T23:41:50.215Z,2.73
2019-05-02T23:44:17.787Z,2.53
2019-05-02T23:46:45.440Z,5.03
2019-05-02T23:49:13.021Z,4.17
2019-05-02T23:51:42.625Z,5.53
2019-05-02T23:54:10.176Z,3.10
2019-05-02T23:56:37.857Z,3.53
2019-05-02T23:59:05.594Z,2.43
